Terminal Aerodrome Forecast
Issued by NWS

Home | Current Version | Previous Version | Text Only | Print | Product List | Glossary On
Versions: 1 2 3 4 5 6 7 8 9 10 11 12 13 14 15 16 17
000
FTUS45 KABQ 031138
TAFLVS
TAF
KLVS 031138Z 0312/0412 25011KT P6SM BKN150
     FM031900 24017G27KT P6SM VCTS BKN090CB
     FM032130 24017G27KT P6SM VCSH SCT060 BKN090
     FM040200 23010KT P6SM BKN100=

USA.gov is the U.S. government's official web portal to all federal, state and local government web resources and services.